Ladd AAF Airfield
PAFB : rendu visible

Aérodrome :











RETROUVEZ-NOUS SUR...

 
LOGIN :

S'inscrire | Disclaimer

   EN    FR    IT 

 









Légende :    VFR   VFR Marginal   IFR   IFR Intensif   IFR Très Intensif
Visi : 
Plafond : 
>= 8 km
>= 3000ft
5 à 8 km
1000 à 3000 ft
1500m à 5 km
500 à 1000 ft
800 à 1500m
200 à 500 ft
< 800m
< 200 ft
Symboles :   Orages  Brouillard  Fortes neiges  Fortes précipitations  Vent > 20 kt






- Altitude de l'aérodrome : 454 ft
- Code IATA : FBK


PAFB - Ladd AAF

DERNIER METAR :
  • 020623Z AUTO 07004KT 10SM VCTS FEW039 OVC065 14/08 A2952 RMK AO2 RAB0558E23 SLP998

METARs EXPIRÉS :
  • 020559Z AUTO 10005KT 9SM -RA FEW011 BKN050 OVC070 15/10 A2951 RMK AO2 LTG DSNT S RAB58 SLPNO $
  • 020549Z AUTO 10005KT 10SM FEW050 OVC070 15/10 A2951 RMK AO2 LTG DSNT S RAB22E49 SLPNO
  • 020522Z AUTO 14005KT 9SM -RA BKN070 BKN080 OVC110 16/09 A2949 RMK AO2 LTG DSNT NE RAB22 SLPNO
  • 020458Z AUTO 15006KT 10SM FEW022 SCT060 SCT070 OVC110 17/09 A2949 RMK AO2 LTG DSNT S RAB37E49 TSB36E54 SLPNO P0000 T01690090 $

TAF AMD TAF PAFB
Valide du 02 à 04h jusqu'au 03 à 05h UTC


020452Z 0204/0305 25010KT 8000 -SHRA BKN030 QNH2947INS
TEMPO 0204/0206 12015G25KT 6000 -TSRA SCT020 BKN030CB
BECMG 0205/0206 VRB06KT 9999 NSW SCT035 BKN055 QNH2948INS
TEMPO 0222/0302 06012G18KT 8000 -SHRA VCTS BKN030CB TX17/0204Z TN09/0212Z
FIR PAZA / Amérique du Nord



MET'MAP, la Météo Aéronautique d'un coup d'oeil ! - Copyright ORBIFLY Décembre 2007 - Disclaimer

ORBIFLY MET'MAP TEAM :

Programmation & Développement : Alexandra Zaïnal
Sur une idée originale de : Baudouin d'Aumeries
Assistance à la programmation : Marc-Olivier Méhu
Soutien technique & logistique : Manuel Goepfert

Contact : metmap@orbifly.com




SOURCES & CREDITS :

   NOAA       Earth
Advisory